Du har inga inställningar för hoppväder.nu

Hoppväder.nu

Senast uppdaterat 00:16

UTC-tid

2019-10-20 kl. 22:16


Sol och måne

Solen går upp 7:57 och går ner 18:12 (beräknade cirkatider)
Nästa fullmåne blir om 22 dagar (2019-11-12)

METAR

ESSA (Arlanda, Stockholm)
(26 minuter sedan)
ESSA 202150Z 33004KT 6000 OVC004 07/07 Q1013 TEMPO BKN004=



ESSD (Borlänge)
(26 minuter sedan)
ESSD 202150Z AUTO 35006KT 6000 BR OVC002/// 03/02 Q1015=



EFMA (Mariehamn)
(26 minuter sedan)
EFMA 202150Z AUTO 31008KT 280V340 7000 OVC003 08/07 Q1012=



ESOW (Västerås)
(26 minuter sedan)
ESOW 202150Z AUTO 36006KT 9999 BKN004/// OVC010/// 07/06 Q1014=






TAF

ESSA (Arlanda, Stockholm)
(286 minuter sedan)
ESSA 201730Z 2018/2118 30006KT 9999 BKN004 TEMPO 2018/2104 3000 BR FEW004 BKN015 BECMG 2104/2106 BKN020=



ESSD (Borlänge)
ESSD



EFMA (Mariehamn)
(21 minuter sedan)
EFMA AMD 202155Z 2022/2106 32007KT 7000 OVC003 TEMPO 2022/2104 9999 BKN012 BECMG 2104/2106 9999 SCT020=



ESOW (Västerås)
ESOW





Kodnycklar till TAF och METAR






LHP

(Gryttjom är område F2c i Norra delen)

Prognos är inte uppdaterad




Spotting

Hur fungerar spotthjälpen och Vindkartan?

Markvind är ca 0 m/s.



Vindkartan

Senast uppdaterad 00:16




All data kommer från LFV.se